Buoy 44768

sailwx.info

Track history (hours):
 
Tides and Currents Weather Stations Pressure Air Temp Water Temp Dewpoint Dewpoint Depression Visibility Wind Speed Wind Dir Waves Ship Positions

Drifting buoy 44768

Last reported at 2018-Apr-25 02:00 UTC. Time now 2018-Apr-25 03:05 UTC.
Position N 33°12' W 069°01'.

Water temperature 20.4 ° C

Date/timePositionNaut miles runAvg speedWind from/ knotsBaromVisibWave heightAir tempDewpointWater temp
2018-Apr-25 02:00N 33°12' W 069°01'1 1.2 20.4
2018-Apr-25 01:00N 33°11' W 069°00'2 1.6 20.4
2018-Apr-25 00:00N 33°10' W 068°59'1 1.2 20.4
2018-Apr-24 23:00N 33°10' W 068°58'1 1.2 20.4
2018-Apr-24 22:00N 33°09' W 068°56'1 1.2 20.3
2018-Apr-24 21:00N 33°08' W 068°55'2 1.6 20.3
2018-Apr-24 20:00N 33°08' W 068°53'1 1.2 20.3
2018-Apr-24 19:00N 33°07' W 068°52'2 1.6 20.3
2018-Apr-24 18:00N 33°07' W 068°50'2 1.6 20.2
2018-Apr-24 17:00N 33°06' W 068°49'2 1.6 20.2
2018-Apr-24 16:00N 33°05' W 068°47'2 1.6 20.2
2018-Apr-24 15:00N 33°05' W 068°45'2 1.6 20.2
2018-Apr-24 14:00N 33°04' W 068°43'2 1.6 20.3
2018-Apr-24 13:00N 33°04' W 068°41'1 1.2 20.4
2018-Apr-24 12:00N 33°03' W 068°40'1 0.8 20.5
2018-Apr-24 11:00N 33°02' W 068°40'1 1.2 20.5
2018-Apr-24 10:00N 33°02' W 068°38'1 1.3 20.6
2018-Apr-24 09:00N 33°01' W 068°38'1 0.8 20.6
2018-Apr-24 08:00N 33°00' W 068°37'1 1.3 20.6
2018-Apr-24 07:00N 32°59' W 068°37'1 0.8 20.7
2018-Apr-24 06:00N 32°58' W 068°36'1 0.8 20.7
2018-Apr-24 05:00N 32°58' W 068°35'1 1.2 20.7
2018-Apr-24 04:00N 32°57' W 068°34'1 0.8 20.7
2018-Apr-24 03:00N 32°56' W 068°34'1 0.5 20.7
2018-Apr-24 02:00N 32°56' W 068°33'1 0.6 20.7
2018-Apr-24 01:00N 32°56' W 068°33'1 0.5 20.7
2018-Apr-24 00:00N 32°56' W 068°32'1 0.5 20.8
2018-Apr-23 23:00N 32°56' W 068°32'0 0.0 20.8
2018-Apr-23 22:00N 32°56' W 068°32'1 0.5 20.8
2018-Apr-23 21:00N 32°56' W 068°31'0 0.0 20.7
2018-Apr-23 20:00N 32°56' W 068°31'1 0.8 20.8
2018-Apr-23 19:00N 32°56' W 068°31'0 0.0 20.8
2018-Apr-23 18:00N 32°56' W 068°31'1 0.8 20.8
2018-Apr-23 17:00N 32°57' W 068°30'0 0.0 20.7
2018-Apr-23 16:00N 32°57' W 068°30'1 0.6 20.7
2018-Apr-23 15:00N 32°58' W 068°30'1 0.5 20.6
2018-Apr-23 14:00N 32°58' W 068°31'0 0.0 20.5
2018-Apr-23 13:00N 32°58' W 068°31'1 0.5 20.3
2018-Apr-23 12:00N 32°58' W 068°31'0 0.0 20.1
2018-Apr-23 11:00N 32°58' W 068°31'1 0.5 19.9
2018-Apr-23 10:00N 32°58' W 068°31'1 0.6 19.8
2018-Apr-23 09:00N 32°58' W 068°31'1 0.5 19.9
2018-Apr-23 08:00N 32°58' W 068°30'1 0.6 20.0
2018-Apr-23 07:00N 32°58' W 068°30'1 0.5 20.1
2018-Apr-23 06:00N 32°58' W 068°29'1 0.5 20.2
2018-Apr-23 05:00N 32°58' W 068°29'1 0.6 20.3
2018-Apr-23 04:00N 32°57' W 068°29'1 0.5 20.4
2018-Apr-23 03:00N 32°57' W 068°28'1 0.6 20.4
2018-Apr-23 02:00N 32°56' W 068°28'0 0.0 20.4
2018-Apr-23 01:00N 32°56' W 068°28'0 0.0 20.4
2018-Apr-23 00:00N 32°56' W 068°28'1 0.6 20.5
2018-Apr-22 23:00N 32°56' W 068°28'0 0.0 20.5
2018-Apr-22 22:00N 32°56' W 068°28'0 0.0 20.6
2018-Apr-22 21:00N 32°56' W 068°28'1 0.6 20.6
2018-Apr-22 20:00N 32°55' W 068°28'0 0.0 20.6
2018-Apr-22 19:00N 32°55' W 068°28'0 0.0 20.6
2018-Apr-22 18:00N 32°55' W 068°28'0 0.0 20.5
2018-Apr-22 17:00N 32°55' W 068°28'0 0.0 20.4
2018-Apr-22 16:00N 32°55' W 068°28'0 0.0 20.3
2018-Apr-22 15:00N 32°55' W 068°28'1 0.6 20.3
2018-Apr-22 14:00N 32°55' W 068°28'1 0.5 20.2
2018-Apr-22 13:00N 32°55' W 068°29'0 0.0 20.2
2018-Apr-22 12:00N 32°55' W 068°29'1 0.5 20.1
2018-Apr-22 11:00N 32°55' W 068°29'1 0.5 20.1
2018-Apr-22 10:00N 32°55' W 068°30'1 0.6 20.1
2018-Apr-22 09:00N 32°54' W 068°30'1 0.5 20.0
2018-Apr-22 08:00N 32°54' W 068°31'0 0.0 20.0
2018-Apr-22 07:00N 32°54' W 068°31'1 0.5 20.1
2018-Apr-22 06:00N 32°54' W 068°31'0 0.0 20.0
2018-Apr-22 05:00N 32°54' W 068°31'1 0.5 20.0
2018-Apr-22 04:00N 32°54' W 068°32'0 0.0 20.0
2018-Apr-22 03:00N 32°54' W 068°32'1 0.6 20.0
2018-Apr-22 02:00N 32°53' W 068°32'1 0.5 20.0
2018-Apr-22 01:00N 32°53' W 068°32'0 0.0 20.0
2018-Apr-22 00:00N 32°53' W 068°32'0 0.0 20.0
2018-Apr-21 23:00N 32°53' W 068°32'1 0.6 20.0
2018-Apr-21 22:00N 32°53' W 068°32'0 0.0 20.1
2018-Apr-21 21:00N 32°53' W 068°32'1 0.6 20.1
2018-Apr-21 20:00N 32°52' W 068°32'0 0.0 20.1
2018-Apr-21 19:00N 32°52' W 068°32'1 0.5 20.1
2018-Apr-21 18:00N 32°52' W 068°32'0 0.0 20.1
2018-Apr-21 17:00N 32°52' W 068°32'0 0.0 20.0
2018-Apr-21 16:00N 32°52' W 068°32'0 0.0 20.0
2018-Apr-21 15:00N 32°52' W 068°32'0 0.0 20.0
2018-Apr-21 14:00N 32°52' W 068°32'1 0.8 20.0
2018-Apr-21 13:00N 32°53' W 068°32'0 0.0 20.0
2018-Apr-21 12:00N 32°53' W 068°32'0 0.0 20.0
2018-Apr-21 11:00N 32°53' W 068°32'1 0.5 20.0
2018-Apr-21 10:00N 32°53' W 068°33'0 0.0 20.0
2018-Apr-21 09:00N 32°53' W 068°33'1 0.5 20.0
2018-Apr-21 08:00N 32°53' W 068°34'1 0.5 20.0
2018-Apr-21 07:00N 32°53' W 068°34'1 0.6 20.0
2018-Apr-21 06:00N 32°52' W 068°34'1 0.5 20.0
2018-Apr-21 05:00N 32°52' W 068°35'1 0.6 20.0
2018-Apr-21 04:00N 32°52' W 068°35'0 0.0 20.0
2018-Apr-21 03:00N 32°52' W 068°35'0 0.0 20.0
2018-Apr-21 02:00N 32°52' W 068°35'1 0.6 20.0
2018-Apr-21 01:00N 32°51' W 068°35'0 0.0 20.0
2018-Apr-21 00:00N 32°51' W 068°35'0 0.0 20.0
2018-Apr-20 23:00N 32°51' W 068°35'0 0.0 20.0
2018-Apr-20 22:00N 32°51' W 068°35'0 0.0 20.0
2018-Apr-20 21:00N 32°51' W 068°35'1 0.6 20.0
2018-Apr-20 20:00N 32°52' W 068°35'0 0.0 20.0
2018-Apr-20 19:00N 32°52' W 068°35'1 0.6 20.0
2018-Apr-20 18:00N 32°52' W 068°35'1 0.6 20.0
2018-Apr-20 17:00N 32°53' W 068°35'1 0.5 20.1
2018-Apr-20 16:00N 32°53' W 068°34'1 0.6 20.1
2018-Apr-20 15:00N 32°53' W 068°34'1 0.6 20.1
2018-Apr-20 14:00N 32°54' W 068°34'1 0.6 20.1
2018-Apr-20 13:00N 32°55' W 068°34'0 0.0 20.1
2018-Apr-20 12:00N 32°55' W 068°34'1 0.5 20.1
2018-Apr-20 11:00N 32°55' W 068°35'1 0.8 20.1
2018-Apr-20 10:00N 32°54' W 068°35'1 0.8 20.1
2018-Apr-20 09:00N 32°53' W 068°36'1 0.8 20.1
2018-Apr-20 08:00N 32°53' W 068°37'1 0.8 20.1
2018-Apr-20 07:00N 32°52' W 068°37'1 1.3 20.1
2018-Apr-20 06:00N 32°51' W 068°38'1 0.8 20.1
2018-Apr-20 05:00N 32°50' W 068°38'1 0.6 20.0
2018-Apr-20 04:00N 32°50' W 068°38'1 0.8 19.9
2018-Apr-20 03:00N 32°49' W 068°39'1 0.8 19.9
2018-Apr-20 02:00N 32°49' W 068°40'1 1.2 19.8
2018-Apr-20 01:00N 32°48' W 068°41'1 0.8 19.8
2018-Apr-20 00:00N 32°47' W 068°41'1 1.2 19.8
2018-Apr-19 23:00N 32°47' W 068°43'1 0.8 19.8
2018-Apr-19 22:00N 32°46' W 068°43'1 1.2 19.8
2018-Apr-19 21:00N 32°46' W 068°44'1 1.2 19.8
2018-Apr-19 20:00N 32°45' W 068°46'1 1.2 19.9
2018-Apr-19 19:00N 32°44' W 068°47'1 1.2 19.8
2018-Apr-19 18:00N 32°44' W 068°48'2 1.6 19.9
2018-Apr-19 17:00N 32°43' W 068°49'1 1.2 19.8
2018-Apr-19 16:00N 32°42' W 068°50'1 1.2 19.8
2018-Apr-19 15:00N 32°41' W 068°52'1 1.2 19.9
2018-Apr-19 14:00N 32°41' W 068°53'1 0.5 19.9
2018-Apr-19 13:00N 32°41' W 068°53'1 0.8 19.9
2018-Apr-19 12:00N 32°40' W 068°54'1 1.2 19.9
2018-Apr-19 11:00N 32°40' W 068°55'1 0.5 19.9
2018-Apr-19 10:00N 32°40' W 068°56'1 0.5 19.9
2018-Apr-19 09:00N 32°40' W 068°56'1 0.5 20.0
2018-Apr-19 08:00N 32°40' W 068°57'1 1.0 20.1
2018-Apr-19 07:00N 32°40' W 068°58'1 0.5 20.2
2018-Apr-19 06:00N 32°40' W 068°59'1 1.2 20.3
2018-Apr-19 05:00N 32°40' W 069°00'1 1.0 20.4
2018-Apr-19 04:00N 32°40' W 069°01'1 1.2 20.5
2018-Apr-19 03:00N 32°41' W 069°02'1 1.0 20.6
2018-Apr-19 02:00N 32°41' W 069°04'1 1.2 20.6
2018-Apr-19 01:00N 32°41' W 069°05'1 1.2 20.7
2018-Apr-19 00:00N 32°42' W 069°06'1 1.0 20.8
2018-Apr-18 23:00N 32°42' W 069°07'1 1.2 20.9
2018-Apr-18 22:00N 32°43' W 069°08'1 1.2 20.9
2018-Apr-18 21:00N 32°43' W 069°10'1 1.0 20.9
2018-Apr-18 20:00N 32°43' W 069°11'1 1.2 21.0
2018-Apr-18 19:00N 32°44' W 069°12'1 1.2 21.1
2018-Apr-18 18:00N 32°44' W 069°13'1 1.2 21.2
2018-Apr-18 17:00N 32°45' W 069°14'1 1.2 21.2
2018-Apr-18 16:00N 32°46' W 069°16'1 1.3 21.2
2018-Apr-18 15:00N 32°47' W 069°16'1 1.2 21.2
2018-Apr-18 14:00N 32°47' W 069°17'1 0.8 21.2
2018-Apr-18 13:00N 32°48' W 069°18'2 1.6 21.3
2018-Apr-18 12:00N 32°49' W 069°19'1 0.8 21.3
2018-Apr-18 11:00N 32°50' W 069°20'1 1.3 21.3
2018-Apr-18 10:00N 32°51' W 069°20'1 1.2 21.3
2018-Apr-18 09:00N 32°52' W 069°22'2 1.6 21.3
2018-Apr-18 08:00N 32°53' W 069°23'1 0.8 21.3
2018-Apr-18 07:00N 32°53' W 069°23'2 1.6 21.3
2018-Apr-18 06:00N 32°55' W 069°25'1 1.2 21.3
2018-Apr-18 05:00N 32°55' W 069°26'1 1.2 21.3
2018-Apr-18 04:00N 32°56' W 069°27'2 1.6 21.4
2018-Apr-18 03:00N 32°56' W 069°29'1 1.0 21.4
2018-Apr-18 02:00N 32°56' W 069°30'1 1.2 21.4
2018-Apr-18 01:00N 32°57' W 069°31'1 1.2 21.5
2018-Apr-18 00:00N 32°58' W 069°32'2 1.5 21.5
2018-Apr-17 23:00N 32°58' W 069°34'1 1.0 21.5
2018-Apr-17 22:00N 32°58' W 069°35'2 1.6 21.6
2018-Apr-17 21:00N 32°58' W 069°37'1 1.0 21.6
2018-Apr-17 20:00N 32°58' W 069°38'2 1.6 21.6
2018-Apr-17 19:00N 32°58' W 069°40'2 1.5 21.6
2018-Apr-17 18:00N 32°58' W 069°42'2 1.5 21.6
2018-Apr-17 17:00N 32°58' W 069°44'2 1.6 21.6
2018-Apr-17 16:00N 32°57' W 069°46'2 1.6 21.6
2018-Apr-17 15:00N 32°56' W 069°47'2 1.5 21.6
2018-Apr-17 14:00N 32°56' W 069°49'2 2.1 21.6
2018-Apr-17 13:00N 32°56' W 069°52'2 2.1 21.6
2018-Apr-17 12:00N 32°55' W 069°54'2 2.1 21.5
2018-Apr-17 11:00N 32°55' W 069°56'2 2.0 21.5
2018-Apr-17 10:00N 32°55' W 069°59'2 2.0 21.5
2018-Apr-17 09:00N 32°55' W 070°01'2 2.0 21.5
2018-Apr-17 08:00N 32°55' W 070°04'2 1.6 21.5
2018-Apr-17 07:00N 32°55' W 070°05'2 2.1 21.6
2018-Apr-17 06:00N 32°56' W 070°08'2 2.1 21.6
2018-Apr-17 05:00N 32°56' W 070°10'2 2.1 21.6
2018-Apr-17 04:00N 32°57' W 070°13'2 1.6 21.6
2018-Apr-17 03:00N 32°58' W 070°14'2 2.1 21.6
2018-Apr-17 02:00N 32°58' W 070°17'2 1.5 21.6
2018-Apr-17 01:00N 32°58' W 070°19'1 1.0 21.6
2018-Apr-17 00:00N 32°58' W 070°20'1 1.0 21.6
2018-Apr-16 23:00N 32°58' W 070°21'1 1.0 21.6
2018-Apr-16 22:00N 32°58' W 070°22'1 0.5 21.6
2018-Apr-16 21:00N 32°58' W 070°23'1 1.0 21.6
2018-Apr-16 20:00N 32°58' W 070°24'1 1.0 21.6
2018-Apr-16 19:00N 32°58' W 070°25'1 0.5 21.7
2018-Apr-16 18:00N 32°58' W 070°26'1 0.5 21.7
2018-Apr-16 17:00N 32°58' W 070°26'1 1.2 21.7
2018-Apr-16 16:00N 32°58' W 070°28'1 0.5 21.7
2018-Apr-16 15:00N 32°58' W 070°28'1 0.5 21.6
2018-Apr-16 14:00N 32°58' W 070°29'1 0.5 21.6
2018-Apr-16 13:00N 32°58' W 070°29'0 0.0 21.7
2018-Apr-16 12:00N 32°58' W 070°29'1 0.5 21.7
2018-Apr-16 11:00N 32°58' W 070°30'1 0.5 21.7
2018-Apr-16 10:00N 32°58' W 070°31'0 0.0 21.7
2018-Apr-16 09:00N 32°58' W 070°31'1 0.5 21.7
2018-Apr-16 08:00N 32°58' W 070°31'1 0.6 21.7
2018-Apr-16 07:00N 32°58' W 070°31'1 0.5 21.8
2018-Apr-16 06:00N 32°58' W 070°32'0 0.0 21.8
2018-Apr-16 05:00N 32°58' W 070°32'1 0.8 21.8
2018-Apr-16 04:00N 32°59' W 070°32'1 0.6 21.8
2018-Apr-16 03:00N 32°59' W 070°32'1 0.6 21.8
2018-Apr-16 02:00N 33°00' W 070°32'1 0.5 21.8
2018-Apr-16 01:00N 33°00' W 070°33'1 0.8 21.8
2018-Apr-16 00:00N 33°01' W 070°34'1 0.6 21.8
2018-Apr-15 23:00N 33°01' W 070°34'1 0.8 21.9
2018-Apr-15 22:00N 33°02' W 070°34'1 0.6 21.9
2018-Apr-15 21:00N 33°02' W 070°34'1 1.3 21.9
2018-Apr-15 20:00N 33°04' W 070°35'1 0.8 21.9
2018-Apr-15 19:00N 33°04' W 070°35'1 0.8 21.9
2018-Apr-15 18:00N 33°05' W 070°36'1 0.6 21.9
2018-Apr-15 17:00N 33°05' W 070°36'1 1.3 21.8
2018-Apr-15 16:00N 33°07' W 070°37'1 0.8 21.8
2018-Apr-15 15:00N 33°07' W 070°37'1 1.3 21.8
2018-Apr-15 14:00N 33°08' W 070°38'1 1.3 21.7
2018-Apr-15 13:00N 33°10' W 070°38'1 1.3 21.7
2018-Apr-15 12:00N 33°11' W 070°39'1 1.3 21.7
2018-Apr-15 11:00N 33°12' W 070°40'2 1.6 21.7
2018-Apr-15 10:00N 33°13' W 070°41'2 1.6 21.6
2018-Apr-15 09:00N 33°14' W 070°42'1 1.3 21.6
2018-Apr-15 08:00N 33°16' W 070°43'2 1.6 21.7
2018-Apr-15 07:00N 33°17' W 070°44'2 1.6 21.7
2018-Apr-15 06:00N 33°18' W 070°45'1 1.3 21.7
2018-Apr-15 05:00N 33°19' W 070°46'2 1.6 21.7
2018-Apr-15 04:00N 33°20' W 070°47'1 0.8 21.7
2018-Apr-15 03:00N 33°21' W 070°47'1 1.3 21.7
2018-Apr-15 02:00N 33°22' W 070°48'   21.7
Track history (hours):
 
Tides and Currents Weather Stations Pressure Air Temp Water Temp Dewpoint Dewpoint Depression Visibility Wind Speed Wind Dir Waves Ship Positions

Drifting buoy 44768

Last reported at 2018-Apr-25 02:00 UTC. Time now 2018-Apr-25 03:05 UTC.
Position N 33°12' W 069°01'.

Water temperature 20.4 ° C

Date/timePositionNaut miles runAvg speedWind from/ knotsBaromVisibWave heightAir tempDewpointWater temp
2018-Apr-25 02:00N 33°12' W 069°01'1 1.2 20.4
2018-Apr-25 01:00N 33°11' W 069°00'2 1.6 20.4
2018-Apr-25 00:00N 33°10' W 068°59'1 1.2 20.4
2018-Apr-24 23:00N 33°10' W 068°58'1 1.2 20.4
2018-Apr-24 22:00N 33°09' W 068°56'1 1.2 20.3
2018-Apr-24 21:00N 33°08' W 068°55'2 1.6 20.3
2018-Apr-24 20:00N 33°08' W 068°53'1 1.2 20.3
2018-Apr-24 19:00N 33°07' W 068°52'2 1.6 20.3
2018-Apr-24 18:00N 33°07' W 068°50'2 1.6 20.2
2018-Apr-24 17:00N 33°06' W 068°49'2 1.6 20.2
2018-Apr-24 16:00N 33°05' W 068°47'2 1.6 20.2
2018-Apr-24 15:00N 33°05' W 068°45'2 1.6 20.2
2018-Apr-24 14:00N 33°04' W 068°43'2 1.6 20.3
2018-Apr-24 13:00N 33°04' W 068°41'1 1.2 20.4
2018-Apr-24 12:00N 33°03' W 068°40'1 0.8 20.5
2018-Apr-24 11:00N 33°02' W 068°40'1 1.2 20.5
2018-Apr-24 10:00N 33°02' W 068°38'1 1.3 20.6
2018-Apr-24 09:00N 33°01' W 068°38'1 0.8 20.6
2018-Apr-24 08:00N 33°00' W 068°37'1 1.3 20.6
2018-Apr-24 07:00N 32°59' W 068°37'1 0.8 20.7
2018-Apr-24 06:00N 32°58' W 068°36'1 0.8 20.7
2018-Apr-24 05:00N 32°58' W 068°35'1 1.2 20.7
2018-Apr-24 04:00N 32°57' W 068°34'1 0.8 20.7
2018-Apr-24 03:00N 32°56' W 068°34'1 0.5 20.7
2018-Apr-24 02:00N 32°56' W 068°33'1 0.6 20.7
2018-Apr-24 01:00N 32°56' W 068°33'1 0.5 20.7
2018-Apr-24 00:00N 32°56' W 068°32'1 0.5 20.8
2018-Apr-23 23:00N 32°56' W 068°32'0 0.0 20.8
2018-Apr-23 22:00N 32°56' W 068°32'1 0.5 20.8
2018-Apr-23 21:00N 32°56' W 068°31'0 0.0 20.7
2018-Apr-23 20:00N 32°56' W 068°31'1 0.8 20.8
2018-Apr-23 19:00N 32°56' W 068°31'0 0.0 20.8
2018-Apr-23 18:00N 32°56' W 068°31'1 0.8 20.8
2018-Apr-23 17:00N 32°57' W 068°30'0 0.0 20.7
2018-Apr-23 16:00N 32°57' W 068°30'1 0.6 20.7
2018-Apr-23 15:00N 32°58' W 068°30'1 0.5 20.6
2018-Apr-23 14:00N 32°58' W 068°31'0 0.0 20.5
2018-Apr-23 13:00N 32°58' W 068°31'1 0.5 20.3
2018-Apr-23 12:00N 32°58' W 068°31'0 0.0 20.1
2018-Apr-23 11:00N 32°58' W 068°31'1 0.5 19.9
2018-Apr-23 10:00N 32°58' W 068°31'1 0.6 19.8
2018-Apr-23 09:00N 32°58' W 068°31'1 0.5 19.9
2018-Apr-23 08:00N 32°58' W 068°30'1 0.6 20.0
2018-Apr-23 07:00N 32°58' W 068°30'1 0.5 20.1
2018-Apr-23 06:00N 32°58' W 068°29'1 0.5 20.2
2018-Apr-23 05:00N 32°58' W 068°29'1 0.6 20.3
2018-Apr-23 04:00N 32°57' W 068°29'1 0.5 20.4
2018-Apr-23 03:00N 32°57' W 068°28'1 0.6 20.4
2018-Apr-23 02:00N 32°56' W 068°28'0 0.0 20.4
2018-Apr-23 01:00N 32°56' W 068°28'0 0.0 20.4
2018-Apr-23 00:00N 32°56' W 068°28'1 0.6 20.5
2018-Apr-22 23:00N 32°56' W 068°28'0 0.0 20.5
2018-Apr-22 22:00N 32°56' W 068°28'0 0.0 20.6
2018-Apr-22 21:00N 32°56' W 068°28'1 0.6 20.6
2018-Apr-22 20:00N 32°55' W 068°28'0 0.0 20.6
2018-Apr-22 19:00N 32°55' W 068°28'0 0.0 20.6
2018-Apr-22 18:00N 32°55' W 068°28'0 0.0 20.5
2018-Apr-22 17:00N 32°55' W 068°28'0 0.0 20.4
2018-Apr-22 16:00N 32°55' W 068°28'0 0.0 20.3
2018-Apr-22 15:00N 32°55' W 068°28'1 0.6 20.3
2018-Apr-22 14:00N 32°55' W 068°28'1 0.5 20.2
2018-Apr-22 13:00N 32°55' W 068°29'0 0.0 20.2
2018-Apr-22 12:00N 32°55' W 068°29'1 0.5 20.1
2018-Apr-22 11:00N 32°55' W 068°29'1 0.5 20.1
2018-Apr-22 10:00N 32°55' W 068°30'1 0.6 20.1
2018-Apr-22 09:00N 32°54' W 068°30'1 0.5 20.0
2018-Apr-22 08:00N 32°54' W 068°31'0 0.0 20.0
2018-Apr-22 07:00N 32°54' W 068°31'1 0.5 20.1
2018-Apr-22 06:00N 32°54' W 068°31'0 0.0 20.0
2018-Apr-22 05:00N 32°54' W 068°31'1 0.5 20.0
2018-Apr-22 04:00N 32°54' W 068°32'0 0.0 20.0
2018-Apr-22 03:00N 32°54' W 068°32'1 0.6 20.0
2018-Apr-22 02:00N 32°53' W 068°32'1 0.5 20.0
2018-Apr-22 01:00N 32°53' W 068°32'0 0.0 20.0
2018-Apr-22 00:00N 32°53' W 068°32'0 0.0 20.0
2018-Apr-21 23:00N 32°53' W 068°32'1 0.6 20.0
2018-Apr-21 22:00N 32°53' W 068°32'0 0.0 20.1
2018-Apr-21 21:00N 32°53' W 068°32'1 0.6 20.1
2018-Apr-21 20:00N 32°52' W 068°32'0 0.0 20.1
2018-Apr-21 19:00N 32°52' W 068°32'1 0.5 20.1
2018-Apr-21 18:00N 32°52' W 068°32'0 0.0 20.1
2018-Apr-21 17:00N 32°52' W 068°32'0 0.0 20.0
2018-Apr-21 16:00N 32°52' W 068°32'0 0.0 20.0
2018-Apr-21 15:00N 32°52' W 068°32'0 0.0 20.0
2018-Apr-21 14:00N 32°52' W 068°32'1 0.8 20.0
2018-Apr-21 13:00N 32°53' W 068°32'0 0.0 20.0
2018-Apr-21 12:00N 32°53' W 068°32'0 0.0 20.0
2018-Apr-21 11:00N 32°53' W 068°32'1 0.5 20.0
2018-Apr-21 10:00N 32°53' W 068°33'0 0.0 20.0
2018-Apr-21 09:00N 32°53' W 068°33'1 0.5 20.0
2018-Apr-21 08:00N 32°53' W 068°34'1 0.5 20.0
2018-Apr-21 07:00N 32°53' W 068°34'1 0.6 20.0
2018-Apr-21 06:00N 32°52' W 068°34'1 0.5 20.0
2018-Apr-21 05:00N 32°52' W 068°35'1 0.6 20.0
2018-Apr-21 04:00N 32°52' W 068°35'0 0.0 20.0
2018-Apr-21 03:00N 32°52' W 068°35'0 0.0 20.0
2018-Apr-21 02:00N 32°52' W 068°35'1 0.6 20.0
2018-Apr-21 01:00N 32°51' W 068°35'0 0.0 20.0
2018-Apr-21 00:00N 32°51' W 068°35'0 0.0 20.0
2018-Apr-20 23:00N 32°51' W 068°35'0 0.0 20.0
2018-Apr-20 22:00N 32°51' W 068°35'0 0.0 20.0
2018-Apr-20 21:00N 32°51' W 068°35'1 0.6 20.0
2018-Apr-20 20:00N 32°52' W 068°35'0 0.0 20.0
2018-Apr-20 19:00N 32°52' W 068°35'1 0.6 20.0
2018-Apr-20 18:00N 32°52' W 068°35'1 0.6 20.0
2018-Apr-20 17:00N 32°53' W 068°35'1 0.5 20.1
2018-Apr-20 16:00N 32°53' W 068°34'1 0.6 20.1
2018-Apr-20 15:00N 32°53' W 068°34'1 0.6 20.1
2018-Apr-20 14:00N 32°54' W 068°34'1 0.6 20.1
2018-Apr-20 13:00N 32°55' W 068°34'0 0.0 20.1
2018-Apr-20 12:00N 32°55' W 068°34'1 0.5 20.1
2018-Apr-20 11:00N 32°55' W 068°35'1 0.8 20.1
2018-Apr-20 10:00N 32°54' W 068°35'1 0.8 20.1
2018-Apr-20 09:00N 32°53' W 068°36'1 0.8 20.1
2018-Apr-20 08:00N 32°53' W 068°37'1 0.8 20.1
2018-Apr-20 07:00N 32°52' W 068°37'1 1.3 20.1
2018-Apr-20 06:00N 32°51' W 068°38'1 0.8 20.1
2018-Apr-20 05:00N 32°50' W 068°38'1 0.6 20.0
2018-Apr-20 04:00N 32°50' W 068°38'1 0.8 19.9
2018-Apr-20 03:00N 32°49' W 068°39'1 0.8 19.9
2018-Apr-20 02:00N 32°49' W 068°40'1 1.2 19.8
2018-Apr-20 01:00N 32°48' W 068°41'1 0.8 19.8
2018-Apr-20 00:00N 32°47' W 068°41'1 1.2 19.8
2018-Apr-19 23:00N 32°47' W 068°43'1 0.8 19.8
2018-Apr-19 22:00N 32°46' W 068°43'1 1.2 19.8
2018-Apr-19 21:00N 32°46' W 068°44'1 1.2 19.8
2018-Apr-19 20:00N 32°45' W 068°46'1 1.2 19.9
2018-Apr-19 19:00N 32°44' W 068°47'1 1.2 19.8
2018-Apr-19 18:00N 32°44' W 068°48'2 1.6 19.9
2018-Apr-19 17:00N 32°43' W 068°49'1 1.2 19.8
2018-Apr-19 16:00N 32°42' W 068°50'1 1.2 19.8
2018-Apr-19 15:00N 32°41' W 068°52'1 1.2 19.9
2018-Apr-19 14:00N 32°41' W 068°53'1 0.5 19.9
2018-Apr-19 13:00N 32°41' W 068°53'1 0.8 19.9
2018-Apr-19 12:00N 32°40' W 068°54'1 1.2 19.9
2018-Apr-19 11:00N 32°40' W 068°55'1 0.5 19.9
2018-Apr-19 10:00N 32°40' W 068°56'1 0.5 19.9
2018-Apr-19 09:00N 32°40' W 068°56'1 0.5 20.0
2018-Apr-19 08:00N 32°40' W 068°57'1 1.0 20.1
2018-Apr-19 07:00N 32°40' W 068°58'1 0.5 20.2
2018-Apr-19 06:00N 32°40' W 068°59'1 1.2 20.3
2018-Apr-19 05:00N 32°40' W 069°00'1 1.0 20.4
2018-Apr-19 04:00N 32°40' W 069°01'1 1.2 20.5
2018-Apr-19 03:00N 32°41' W 069°02'1 1.0 20.6
2018-Apr-19 02:00N 32°41' W 069°04'1 1.2 20.6
2018-Apr-19 01:00N 32°41' W 069°05'1 1.2 20.7
2018-Apr-19 00:00N 32°42' W 069°06'1 1.0 20.8
2018-Apr-18 23:00N 32°42' W 069°07'1 1.2 20.9
2018-Apr-18 22:00N 32°43' W 069°08'1 1.2 20.9
2018-Apr-18 21:00N 32°43' W 069°10'1 1.0 20.9
2018-Apr-18 20:00N 32°43' W 069°11'1 1.2 21.0
2018-Apr-18 19:00N 32°44' W 069°12'1 1.2 21.1
2018-Apr-18 18:00N 32°44' W 069°13'1 1.2 21.2
2018-Apr-18 17:00N 32°45' W 069°14'1 1.2 21.2
2018-Apr-18 16:00N 32°46' W 069°16'1 1.3 21.2
2018-Apr-18 15:00N 32°47' W 069°16'1 1.2 21.2
2018-Apr-18 14:00N 32°47' W 069°17'1 0.8 21.2
2018-Apr-18 13:00N 32°48' W 069°18'2 1.6 21.3
2018-Apr-18 12:00N 32°49' W 069°19'1 0.8 21.3
2018-Apr-18 11:00N 32°50' W 069°20'1 1.3 21.3
2018-Apr-18 10:00N 32°51' W 069°20'1 1.2 21.3
2018-Apr-18 09:00N 32°52' W 069°22'2 1.6 21.3
2018-Apr-18 08:00N 32°53' W 069°23'1 0.8 21.3
2018-Apr-18 07:00N 32°53' W 069°23'2 1.6 21.3
2018-Apr-18 06:00N 32°55' W 069°25'1 1.2 21.3
2018-Apr-18 05:00N 32°55' W 069°26'1 1.2 21.3
2018-Apr-18 04:00N 32°56' W 069°27'2 1.6 21.4
2018-Apr-18 03:00N 32°56' W 069°29'1 1.0 21.4
2018-Apr-18 02:00N 32°56' W 069°30'1 1.2 21.4
2018-Apr-18 01:00N 32°57' W 069°31'1 1.2 21.5
2018-Apr-18 00:00N 32°58' W 069°32'2 1.5 21.5
2018-Apr-17 23:00N 32°58' W 069°34'1 1.0 21.5
2018-Apr-17 22:00N 32°58' W 069°35'2 1.6 21.6
2018-Apr-17 21:00N 32°58' W 069°37'1 1.0 21.6
2018-Apr-17 20:00N 32°58' W 069°38'2 1.6 21.6
2018-Apr-17 19:00N 32°58' W 069°40'2 1.5 21.6
2018-Apr-17 18:00N 32°58' W 069°42'2 1.5 21.6
2018-Apr-17 17:00N 32°58' W 069°44'2 1.6 21.6
2018-Apr-17 16:00N 32°57' W 069°46'2 1.6 21.6
2018-Apr-17 15:00N 32°56' W 069°47'2 1.5 21.6
2018-Apr-17 14:00N 32°56' W 069°49'2 2.1 21.6
2018-Apr-17 13:00N 32°56' W 069°52'2 2.1 21.6
2018-Apr-17 12:00N 32°55' W 069°54'2 2.1 21.5
2018-Apr-17 11:00N 32°55' W 069°56'2 2.0 21.5
2018-Apr-17 10:00N 32°55' W 069°59'2 2.0 21.5
2018-Apr-17 09:00N 32°55' W 070°01'2 2.0 21.5
2018-Apr-17 08:00N 32°55' W 070°04'2 1.6 21.5
2018-Apr-17 07:00N 32°55' W 070°05'2 2.1 21.6
2018-Apr-17 06:00N 32°56' W 070°08'2 2.1 21.6
2018-Apr-17 05:00N 32°56' W 070°10'2 2.1 21.6
2018-Apr-17 04:00N 32°57' W 070°13'2 1.6 21.6
2018-Apr-17 03:00N 32°58' W 070°14'2 2.1 21.6
2018-Apr-17 02:00N 32°58' W 070°17'2 1.5 21.6
2018-Apr-17 01:00N 32°58' W 070°19'1 1.0 21.6
2018-Apr-17 00:00N 32°58' W 070°20'1 1.0 21.6
2018-Apr-16 23:00N 32°58' W 070°21'1 1.0 21.6
2018-Apr-16 22:00N 32°58' W 070°22'1 0.5 21.6
2018-Apr-16 21:00N 32°58' W 070°23'1 1.0 21.6
2018-Apr-16 20:00N 32°58' W 070°24'1 1.0 21.6
2018-Apr-16 19:00N 32°58' W 070°25'1 0.5 21.7
2018-Apr-16 18:00N 32°58' W 070°26'1 0.5 21.7
2018-Apr-16 17:00N 32°58' W 070°26'1 1.2 21.7
2018-Apr-16 16:00N 32°58' W 070°28'1 0.5 21.7
2018-Apr-16 15:00N 32°58' W 070°28'1 0.5 21.6
2018-Apr-16 14:00N 32°58' W 070°29'1 0.5 21.6
2018-Apr-16 13:00N 32°58' W 070°29'0 0.0 21.7
2018-Apr-16 12:00N 32°58' W 070°29'1 0.5 21.7
2018-Apr-16 11:00N 32°58' W 070°30'1 0.5 21.7
2018-Apr-16 10:00N 32°58' W 070°31'0 0.0 21.7
2018-Apr-16 09:00N 32°58' W 070°31'1 0.5 21.7
2018-Apr-16 08:00N 32°58' W 070°31'1 0.6 21.7
2018-Apr-16 07:00N 32°58' W 070°31'1 0.5 21.8
2018-Apr-16 06:00N 32°58' W 070°32'0 0.0 21.8
2018-Apr-16 05:00N 32°58' W 070°32'1 0.8 21.8
2018-Apr-16 04:00N 32°59' W 070°32'1 0.6 21.8
2018-Apr-16 03:00N 32°59' W 070°32'1 0.6 21.8
2018-Apr-16 02:00N 33°00' W 070°32'1 0.5 21.8
2018-Apr-16 01:00N 33°00' W 070°33'1 0.8 21.8
2018-Apr-16 00:00N 33°01' W 070°34'1 0.6 21.8
2018-Apr-15 23:00N 33°01' W 070°34'1 0.8 21.9
2018-Apr-15 22:00N 33°02' W 070°34'1 0.6 21.9
2018-Apr-15 21:00N 33°02' W 070°34'1 1.3 21.9
2018-Apr-15 20:00N 33°04' W 070°35'1 0.8 21.9
2018-Apr-15 19:00N 33°04' W 070°35'1 0.8 21.9
2018-Apr-15 18:00N 33°05' W 070°36'1 0.6 21.9
2018-Apr-15 17:00N 33°05' W 070°36'1 1.3 21.8
2018-Apr-15 16:00N 33°07' W 070°37'1 0.8 21.8
2018-Apr-15 15:00N 33°07' W 070°37'1 1.3 21.8
2018-Apr-15 14:00N 33°08' W 070°38'1 1.3 21.7
2018-Apr-15 13:00N 33°10' W 070°38'1 1.3 21.7
2018-Apr-15 12:00N 33°11' W 070°39'1 1.3 21.7
2018-Apr-15 11:00N 33°12' W 070°40'2 1.6 21.7
2018-Apr-15 10:00N 33°13' W 070°41'2 1.6 21.6
2018-Apr-15 09:00N 33°14' W 070°42'1 1.3 21.6
2018-Apr-15 08:00N 33°16' W 070°43'2 1.6 21.7
2018-Apr-15 07:00N 33°17' W 070°44'2 1.6 21.7
2018-Apr-15 06:00N 33°18' W 070°45'1 1.3 21.7
2018-Apr-15 05:00N 33°19' W 070°46'2 1.6 21.7
2018-Apr-15 04:00N 33°20' W 070°47'1 0.8 21.7
2018-Apr-15 03:00N 33°21' W 070°47'1 1.3 21.7
2018-Apr-15 02:00N 33°22' W 070°48'   21.7

Dump ship's entire track history